createdAt,value
2018-09-01T00:01:46.597Z,16.54
2018-09-01T00:04:16.027Z,16.54
2018-09-01T00:06:46.150Z,16.60
2018-09-01T00:09:15.576Z,16.59
2018-09-01T00:11:45.291Z,16.56
2018-09-01T00:14:14.778Z,16.54
2018-09-01T00:16:44.424Z,16.54
2018-09-01T00:19:14.276Z,16.65
2018-09-01T00:21:50.749Z,16.65
2018-09-01T00:27:31.456Z,16.68
2018-09-01T00:30:01.157Z,16.63
2018-09-01T00:32:30.750Z,16.48
2018-09-01T00:35:02.735Z,16.46
2018-09-01T00:43:22.438Z,16.37
2018-09-01T00:45:52.016Z,16.38
2018-09-01T00:48:21.730Z,16.27
2018-09-01T00:50:51.725Z,16.31
2018-09-01T01:02:17.550Z,16.13
2018-09-01T01:04:54.687Z,16.10
2018-09-01T01:07:41.237Z,16.05
2018-09-01T01:10:10.997Z,16.06
2018-09-01T01:12:41.325Z,16.06
2018-09-01T01:15:12.498Z,16.09
2018-09-01T01:17:41.810Z,16.02
2018-09-01T01:20:11.262Z,16.01
2018-09-01T01:22:40.826Z,16.07
2018-09-01T01:25:10.472Z,16.08
2018-09-01T01:27:40.260Z,16.15
2018-09-01T01:45:59.765Z,16.06
2018-09-01T01:48:29.395Z,16.08
2018-09-01T01:50:59.278Z,16.05
2018-09-01T01:53:29.087Z,15.98
2018-09-01T01:55:58.914Z,16.03
2018-09-01T01:58:28.748Z,16.08
2018-09-01T02:00:58.370Z,16.10
2018-09-01T02:03:28.242Z,16.09
2018-09-01T02:05:58.045Z,16.06
2018-09-01T02:08:27.976Z,16.08
2018-09-01T02:10:57.644Z,16.10
2018-09-01T02:13:27.545Z,16.09
2018-09-01T02:15:58.171Z,16.02
2018-09-01T02:18:28.256Z,16.09
2018-09-01T02:23:59.189Z,16.02
2018-09-01T02:26:28.985Z,16.03
2018-09-01T02:28:58.714Z,16.06
2018-09-01T02:31:28.719Z,16.07
2018-09-01T02:33:58.484Z,16.05
2018-09-01T02:36:28.178Z,15.98
2018-09-01T02:38:58.025Z,15.96
2018-09-01T02:41:27.781Z,15.94
2018-09-01T02:43:57.708Z,15.99
2018-09-01T02:46:27.674Z,16.02
2018-09-01T02:48:58.998Z,16.00
2018-09-01T02:51:28.665Z,15.98
2018-09-01T02:53:58.343Z,15.96
2018-09-01T02:56:27.933Z,15.95
2018-09-01T02:58:58.356Z,15.93
2018-09-01T03:01:32.915Z,15.96
2018-09-01T03:04:04.269Z,15.99
2018-09-01T03:06:44.982Z,16.05
2018-09-01T03:09:14.637Z,15.99
2018-09-01T03:11:45.391Z,16.04
2018-09-01T03:14:15.013Z,16.03
2018-09-01T03:16:44.978Z,16.01
2018-09-01T03:19:14.637Z,15.95
2018-09-01T03:21:44.558Z,15.86
2018-09-01T03:24:14.511Z,15.90
2018-09-01T03:26:44.276Z,15.87
2018-09-01T03:51:01.492Z,15.71
2018-09-01T03:53:36.444Z,15.61
2018-09-01T03:59:10.494Z,15.67
2018-09-01T04:01:40.244Z,15.62
2018-09-01T04:04:10.054Z,15.56
2018-09-01T04:06:39.641Z,15.58
2018-09-01T04:09:09.451Z,15.58
2018-09-01T04:11:39.030Z,15.62
2018-09-01T04:14:08.773Z,15.60
2018-09-01T04:16:38.982Z,15.55
2018-09-01T04:25:33.461Z,15.52
2018-09-01T04:28:03.952Z,15.58
2018-09-01T04:30:34.013Z,15.49
2018-09-01T04:34:14.818Z,15.47
2018-09-01T04:39:47.282Z,15.52
2018-09-01T04:42:17.870Z,15.55
2018-09-01T04:44:47.552Z,15.55
2018-09-01T04:47:17.545Z,15.62
2018-09-01T04:49:47.113Z,15.67
2018-09-01T04:52:16.831Z,15.72
2018-09-01T04:54:47.385Z,15.75
2018-09-01T04:57:16.922Z,15.78
2018-09-01T04:59:58.111Z,15.75
2018-09-01T05:02:27.762Z,15.76
2018-09-01T05:04:57.329Z,15.82
2018-09-01T05:07:26.821Z,15.86
2018-09-01T05:09:57.084Z,15.93
2018-09-01T05:12:26.488Z,15.95
2018-09-01T05:14:56.082Z,15.96
2018-09-01T05:17:25.586Z,15.95
2018-09-01T05:19:55.222Z,15.96
2018-09-01T05:22:24.915Z,15.99
2018-09-01T05:24:55.414Z,16.01
2018-09-01T05:27:25.253Z,16.00
2018-09-01T05:29:55.267Z,15.90
2018-09-01T05:32:25.833Z,15.94
2018-09-01T05:34:57.071Z,15.94
2018-09-01T05:37:27.032Z,15.98
2018-09-01T05:39:57.146Z,16.04
2018-09-01T05:42:28.073Z,16.08
2018-09-01T05:44:57.885Z,16.08
2018-09-01T05:47:27.786Z,16.11
2018-09-01T05:49:58.496Z,16.10
2018-09-01T05:52:28.338Z,16.08
2018-09-01T05:54:58.006Z,16.08
2018-09-01T05:57:27.447Z,16.16
2018-09-01T05:59:57.139Z,16.24
2018-09-01T06:02:26.582Z,16.25
2018-09-01T06:04:56.107Z,16.23
2018-09-01T06:07:25.625Z,16.28
2018-09-01T06:10:07.579Z,16.26
2018-09-01T06:12:36.822Z,16.26
2018-09-01T06:15:06.494Z,16.14
2018-09-01T06:18:14.490Z,16.18
2018-09-01T06:20:47.024Z,16.32
2018-09-01T06:23:16.503Z,16.32
2018-09-01T06:25:45.990Z,16.27
2018-09-01T06:28:22.614Z,16.36
2018-09-01T06:31:12.743Z,16.40
2018-09-01T06:34:00.911Z,16.26
2018-09-01T06:36:31.182Z,16.38
2018-09-01T06:39:00.483Z,16.45
2018-09-01T06:41:41.570Z,16.50
2018-09-01T06:44:24.430Z,16.47
2018-09-01T06:47:13.215Z,16.60
2018-09-01T06:49:45.584Z,16.61
2018-09-01T06:52:15.682Z,16.64
2018-09-01T06:54:45.264Z,16.82
2018-09-01T06:57:14.695Z,16.87
2018-09-01T06:59:44.106Z,16.96
2018-09-01T07:02:13.744Z,17.02
2018-09-01T07:04:43.362Z,16.85
2018-09-01T07:07:15.689Z,17.03
2018-09-01T07:10:03.004Z,17.14
2018-09-01T07:13:01.273Z,17.12
2018-09-01T07:15:32.286Z,17.13
2018-09-01T07:18:02.529Z,17.22
2018-09-01T07:20:49.096Z,17.42
2018-09-01T07:23:18.834Z,17.42
2018-09-01T07:25:48.413Z,17.45
2018-09-01T07:28:17.854Z,17.45
2018-09-01T07:30:47.795Z,17.51
2018-09-01T07:33:17.053Z,17.67
2018-09-01T07:35:46.668Z,17.79
2018-09-01T07:38:16.272Z,17.70
2018-09-01T07:40:45.852Z,17.59
2018-09-01T07:43:15.259Z,17.65
2018-09-01T07:45:44.736Z,17.69
2018-09-01T07:48:14.180Z,17.79
2018-09-01T07:50:45.712Z,17.71
2018-09-01T07:53:15.284Z,17.71
2018-09-01T07:55:44.864Z,17.84
2018-09-01T07:58:14.506Z,17.78
2018-09-01T08:00:44.143Z,17.70
2018-09-01T08:03:13.910Z,17.86
2018-09-01T08:05:43.766Z,17.98
2018-09-01T08:08:13.208Z,18.04
2018-09-01T08:10:42.807Z,17.94
2018-09-01T08:13:12.265Z,17.95
2018-09-01T08:15:41.847Z,18.03
2018-09-01T08:18:11.284Z,17.90
2018-09-01T08:20:40.743Z,17.86
2018-09-01T08:23:10.241Z,17.72
2018-09-01T08:25:39.803Z,17.66
2018-09-01T08:28:09.406Z,17.58
2018-09-01T08:30:38.900Z,17.46
2018-09-01T08:33:08.402Z,17.38
2018-09-01T08:35:38.320Z,17.28
2018-09-01T08:38:08.142Z,17.01
2018-09-01T08:40:37.884Z,17.13
2018-09-01T08:52:12.897Z,16.19
2018-09-01T08:54:43.288Z,16.22
2018-09-01T08:57:14.187Z,16.17
2018-09-01T09:04:04.578Z,16.05
2018-09-01T09:06:34.347Z,16.04
2018-09-01T09:09:04.738Z,16.06
2018-09-01T09:11:34.652Z,16.04
2018-09-01T09:35:24.394Z,16.12
2018-09-01T09:37:54.355Z,16.19
2018-09-01T09:40:24.254Z,16.26
2018-09-01T09:42:54.256Z,16.33
2018-09-01T09:45:24.714Z,16.42
2018-09-01T09:47:55.324Z,16.57
2018-09-01T09:50:25.373Z,16.68
2018-09-01T09:52:55.153Z,17.00
2018-09-01T09:55:24.992Z,17.17
2018-09-01T09:57:54.673Z,17.36
2018-09-01T10:00:29.633Z,17.49
2018-09-01T10:02:59.592Z,17.92
2018-09-01T10:05:30.076Z,18.30
2018-09-01T10:08:00.012Z,18.44
2018-09-01T10:10:30.032Z,18.60
2018-09-01T10:12:59.917Z,18.65
2018-09-01T10:15:30.392Z,18.97
2018-09-01T10:18:00.311Z,19.29
2018-09-01T10:20:30.292Z,19.29
2018-09-01T10:23:00.113Z,19.27
2018-09-01T10:25:30.092Z,19.44
2018-09-01T10:27:59.973Z,19.36
2018-09-01T10:30:30.012Z,19.29
2018-09-01T10:32:59.939Z,19.39
2018-09-01T10:35:30.071Z,19.51
2018-09-01T10:38:00.580Z,19.51
2018-09-01T10:40:31.231Z,19.42
2018-09-01T10:43:01.070Z,19.70
2018-09-01T10:45:31.079Z,19.84
2018-09-01T10:48:01.073Z,19.92
2018-09-01T10:50:31.778Z,19.76
2018-09-01T10:53:01.698Z,19.43
2018-09-01T10:55:31.670Z,19.25
2018-09-01T10:58:01.450Z,19.20
2018-09-01T11:00:32.093Z,19.12
2018-09-01T11:03:02.013Z,19.23
2018-09-01T11:05:32.015Z,19.18
2018-09-01T11:08:01.889Z,19.11
2018-09-01T11:10:31.938Z,19.08
2018-09-01T11:13:02.108Z,19.02
2018-09-01T11:15:32.290Z,19.00
2018-09-01T11:18:02.362Z,19.00
2018-09-01T11:20:33.685Z,18.79
2018-09-01T11:23:03.796Z,18.64
2018-09-01T11:25:34.208Z,18.55
2018-09-01T11:28:04.880Z,18.40
2018-09-01T11:30:38.489Z,18.33
2018-09-01T11:33:08.897Z,18.35
2018-09-01T11:35:40.407Z,18.50
2018-09-01T11:38:10.495Z,18.26
2018-09-01T11:40:40.772Z,18.36
2018-09-01T11:43:10.986Z,18.39
2018-09-01T11:45:41.047Z,18.39
2018-09-01T11:48:11.248Z,18.45
2018-09-01T11:50:41.108Z,18.48
2018-09-01T11:53:12.359Z,18.53
2018-09-01T11:55:42.188Z,18.47
2018-09-01T11:58:12.051Z,18.63
2018-09-01T12:00:42.392Z,18.77
2018-09-01T12:03:12.409Z,18.87
2018-09-01T12:05:42.229Z,18.83
2018-09-01T12:08:12.088Z,19.02
2018-09-01T12:10:42.168Z,19.17
2018-09-01T12:13:12.068Z,19.25
2018-09-01T12:15:42.123Z,19.38
2018-09-01T12:18:11.932Z,19.05
2018-09-01T12:20:41.948Z,19.19
2018-09-01T12:23:11.769Z,19.33
2018-09-01T12:25:42.248Z,19.68
2018-09-01T12:28:12.251Z,19.84
2018-09-01T12:30:42.388Z,19.86
2018-09-01T12:33:12.828Z,19.87
2018-09-01T12:35:43.011Z,20.19
2018-09-01T12:38:13.269Z,20.05
2018-09-01T12:40:44.730Z,19.93
2018-09-01T12:43:14.650Z,19.72
2018-09-01T12:45:44.729Z,19.82
2018-09-01T12:48:14.809Z,20.14
2018-09-01T12:50:44.891Z,19.94
2018-09-01T12:53:14.842Z,20.33
2018-09-01T12:55:45.050Z,20.23
2018-09-01T12:58:15.732Z,19.72
2018-09-01T13:00:45.668Z,19.92
2018-09-01T13:03:15.709Z,19.87
2018-09-01T13:05:45.790Z,19.89
2018-09-01T13:08:15.550Z,20.12
2018-09-01T13:10:45.689Z,20.32
2018-09-01T13:13:15.629Z,20.30
2018-09-01T13:15:45.913Z,20.24
2018-09-01T13:18:16.569Z,20.36
2018-09-01T13:20:46.629Z,20.43
2018-09-01T13:23:17.250Z,20.66
2018-09-01T13:25:47.748Z,20.62
2018-09-01T13:28:17.650Z,20.84
2018-09-01T13:30:48.497Z,20.68
2018-09-01T13:33:18.421Z,20.54
2018-09-01T13:35:48.715Z,20.58
2018-09-01T13:38:19.029Z,20.77
2018-09-01T13:40:49.356Z,20.56
2018-09-01T13:43:19.337Z,20.47
2018-09-01T13:45:49.742Z,20.29
2018-09-01T13:48:19.589Z,20.08
2018-09-01T13:50:49.648Z,20.17
2018-09-01T13:53:19.322Z,19.89
2018-09-01T13:55:50.850Z,19.81
2018-09-01T13:58:21.114Z,19.90
2018-09-01T14:00:51.315Z,19.98
2018-09-01T14:03:21.118Z,20.16
2018-09-01T14:05:51.249Z,20.52
2018-09-01T14:08:21.507Z,20.79
2018-09-01T14:10:53.601Z,21.01
2018-09-01T14:13:23.395Z,20.69
2018-09-01T14:15:53.447Z,20.34
2018-09-01T14:18:23.189Z,20.23
2018-09-01T14:20:53.298Z,20.04
2018-09-01T14:23:23.179Z,20.20
2018-09-01T14:25:53.271Z,20.36
2018-09-01T14:28:23.391Z,20.29
2018-09-01T14:30:53.851Z,20.32
2018-09-01T14:33:23.651Z,20.27
2018-09-01T14:35:53.571Z,20.05
2018-09-01T14:38:23.341Z,19.78
2018-09-01T14:40:53.326Z,19.54
2018-09-01T14:43:22.848Z,19.44
2018-09-01T14:45:53.424Z,19.17
2018-09-01T14:48:23.292Z,18.93
2018-09-01T14:50:53.560Z,18.79
2018-09-01T14:53:23.607Z,18.74
2018-09-01T14:55:53.388Z,18.64
2018-09-01T14:58:23.316Z,18.59
2018-09-01T15:00:53.141Z,18.70
2018-09-01T15:03:22.814Z,18.67
2018-09-01T15:05:53.055Z,18.65
2018-09-01T15:08:23.084Z,18.61
2018-09-01T15:10:53.634Z,18.49
2018-09-01T15:13:24.613Z,18.44
2018-09-01T15:15:54.634Z,18.34
2018-09-01T15:18:24.633Z,18.43
2018-09-01T15:20:56.313Z,18.54
2018-09-01T15:23:27.013Z,18.48
2018-09-01T15:25:56.973Z,18.48
2018-09-01T15:28:26.843Z,18.44
2018-09-01T15:30:57.137Z,18.33
2018-09-01T15:33:27.136Z,18.22
2018-09-01T15:35:57.114Z,18.07
2018-09-01T15:38:27.013Z,17.98
2018-09-01T15:40:58.814Z,17.90
2018-09-01T15:43:29.154Z,17.90
2018-09-01T15:46:00.814Z,17.80
2018-09-01T15:48:33.099Z,17.86
2018-09-01T15:51:07.002Z,17.87
2018-09-01T15:53:38.256Z,17.77
2018-09-01T15:56:09.576Z,17.75
2018-09-01T15:58:39.478Z,17.75
2018-09-01T16:01:09.353Z,17.83
2018-09-01T16:03:39.347Z,17.84
2018-09-01T16:06:09.823Z,17.80
2018-09-01T16:08:40.182Z,17.84
2018-09-01T16:11:13.162Z,17.78
2018-09-01T16:13:43.213Z,17.71
2018-09-01T16:16:15.244Z,17.72
2018-09-01T16:18:45.756Z,17.56
2018-09-01T16:21:17.612Z,17.57
2018-09-01T16:23:47.541Z,17.65
2018-09-01T16:26:19.173Z,17.69
2018-09-01T16:28:49.674Z,17.64
2018-09-01T16:31:21.735Z,17.62
2018-09-01T16:33:52.774Z,17.64
2018-09-01T16:36:24.947Z,17.55
2018-09-01T16:38:55.082Z,17.51
2018-09-01T16:41:28.049Z,17.48
2018-09-01T16:43:58.588Z,17.42
2018-09-01T16:46:30.099Z,17.34
2018-09-01T16:49:00.164Z,17.21
2018-09-01T16:51:31.560Z,17.11
2018-09-01T16:54:01.449Z,17.09
2018-09-01T16:56:31.182Z,17.17
2018-09-01T16:59:00.979Z,17.21
2018-09-01T17:01:30.723Z,17.18
2018-09-01T17:04:01.126Z,17.13
2018-09-01T17:06:30.726Z,17.09
2018-09-01T17:09:01.666Z,17.07
2018-09-01T17:11:31.300Z,16.98
2018-09-01T17:14:01.127Z,17.01
2018-09-01T17:16:30.967Z,17.03
2018-09-01T17:21:43.779Z,16.91
2018-09-01T17:24:13.531Z,16.88
2018-09-01T17:26:43.261Z,16.81
2018-09-01T17:29:13.179Z,16.80
2018-09-01T17:31:42.840Z,16.75
2018-09-01T17:34:12.585Z,16.72
2018-09-01T17:36:42.440Z,16.69
2018-09-01T17:39:14.168Z,16.71
2018-09-01T17:41:44.067Z,16.63
2018-09-01T17:44:13.899Z,16.57
2018-09-01T17:46:43.861Z,16.50
2018-09-01T17:49:13.685Z,16.44
2018-09-01T17:51:43.446Z,16.41
2018-09-01T17:54:14.678Z,16.36
2018-09-01T17:56:44.645Z,16.25
2018-09-01T17:59:14.725Z,16.18
2018-09-01T18:01:44.746Z,16.11
2018-09-01T18:04:14.587Z,16.03
2018-09-01T18:06:44.766Z,15.94
2018-09-01T18:09:14.900Z,15.83
2018-09-01T18:11:45.066Z,15.85
2018-09-01T18:14:17.185Z,15.85
2018-09-01T18:16:47.084Z,15.85
2018-09-01T18:19:17.126Z,15.81
2018-09-01T18:21:46.941Z,15.76
2018-09-01T18:24:17.716Z,15.73
2018-09-01T18:26:48.272Z,15.74
2018-09-01T18:32:15.816Z,15.72
2018-09-01T18:34:45.991Z,15.70
2018-09-01T18:41:38.884Z,15.57
2018-09-01T18:59:13.477Z,15.58
2018-09-01T19:01:44.215Z,15.58
2018-09-01T19:04:20.727Z,15.52
2018-09-01T19:06:51.143Z,15.48
2018-09-01T19:09:21.564Z,15.46
2018-09-01T19:11:52.352Z,15.47
2018-09-01T19:14:22.905Z,15.50
2018-09-01T19:16:52.960Z,15.49
2018-09-01T19:19:23.001Z,15.50
2018-09-01T19:24:31.133Z,15.44
2018-09-01T19:27:01.208Z,15.45
2018-09-01T19:29:31.643Z,15.48
2018-09-01T19:32:02.771Z,15.54
2018-09-01T19:34:34.045Z,15.45
2018-09-01T19:37:05.091Z,15.44
2018-09-01T19:42:37.126Z,15.51
2018-09-01T19:45:08.097Z,15.46
2018-09-01T19:47:38.409Z,15.50
2018-09-01T20:00:15.434Z,15.62
2018-09-01T20:02:46.278Z,15.62
2018-09-01T20:05:17.357Z,15.62
2018-09-01T20:07:47.656Z,15.62
2018-09-01T20:10:17.998Z,15.59
2018-09-01T20:12:48.099Z,15.54
2018-09-01T20:15:19.445Z,15.53
2018-09-01T20:17:50.352Z,15.54
2018-09-01T20:20:21.795Z,15.53
2018-09-01T20:22:52.252Z,15.52
2018-09-01T20:25:26.633Z,15.45
2018-09-01T20:27:57.007Z,15.42
2018-09-01T20:33:10.910Z,15.26
2018-09-01T20:35:49.302Z,15.24
2018-09-01T20:38:19.272Z,15.26
2018-09-01T20:40:54.035Z,15.30
2018-09-01T20:43:24.974Z,15.26
2018-09-01T20:45:55.153Z,15.26
2018-09-01T20:48:24.921Z,15.23
2018-09-01T20:50:57.692Z,15.21
2018-09-01T20:53:27.739Z,15.18
2018-09-01T20:55:57.847Z,15.11
2018-09-01T20:58:28.151Z,15.09
2018-09-01T21:01:00.237Z,15.11
2018-09-01T21:03:31.796Z,15.12
2018-09-01T21:06:02.083Z,15.00
2018-09-01T21:21:47.773Z,15.09
2018-09-01T21:33:30.421Z,15.17
2018-09-01T21:36:00.526Z,15.14
2018-09-01T21:38:30.491Z,15.13
2018-09-01T21:41:00.574Z,15.12
2018-09-01T21:43:30.643Z,15.11
2018-09-01T21:46:01.672Z,15.13
2018-09-01T21:48:32.003Z,15.12
2018-09-01T21:56:52.368Z,15.15
2018-09-01T21:59:22.867Z,15.13
2018-09-01T22:09:47.227Z,15.07
2018-09-01T22:12:17.910Z,15.03
2018-09-01T22:14:48.096Z,14.94
2018-09-01T22:17:18.971Z,14.95
2018-09-01T22:19:50.648Z,14.94
2018-09-01T22:22:21.220Z,14.85
2018-09-01T22:24:51.410Z,14.86
2018-09-01T22:27:22.216Z,14.85
2018-09-01T22:29:52.444Z,14.82
2018-09-01T22:32:22.557Z,14.79
2018-09-01T22:34:53.564Z,14.78
2018-09-01T23:07:31.634Z,14.70
2018-09-01T23:10:01.520Z,14.72
2018-09-01T23:12:31.576Z,14.73
2018-09-01T23:15:01.955Z,14.81
2018-09-01T23:24:37.860Z,14.82
2018-09-01T23:27:09.418Z,14.84
2018-09-01T23:29:49.235Z,14.83
2018-09-01T23:35:29.058Z,14.91
2018-09-01T23:40:52.644Z,14.91
2018-09-01T23:43:23.016Z,14.94
2018-09-01T23:45:53.157Z,14.97
2018-09-01T23:48:23.462Z,15.00
2018-09-01T23:50:54.661Z,15.01
2018-09-01T23:53:25.294Z,15.00
2018-09-01T23:55:55.310Z,14.98
2018-09-01T23:58:26.159Z,15.01
